createdAt,value
2023-04-16T00:00:06.433Z,6.73
2023-04-16T00:02:41.576Z,6.74
2023-04-16T00:05:12.151Z,6.69
2023-04-16T00:07:42.369Z,6.69
2023-04-16T00:10:15.301Z,6.70
2023-04-16T00:12:46.047Z,6.71
2023-04-16T00:15:16.557Z,6.67
2023-04-16T00:17:46.954Z,6.70
2023-04-16T00:20:17.318Z,6.66
2023-04-16T00:22:47.700Z,6.68
2023-04-16T00:25:20.549Z,6.67
2023-04-16T00:27:50.904Z,6.65
2023-04-16T00:30:21.215Z,6.70
2023-04-16T00:32:51.547Z,6.67
2023-04-16T00:35:22.012Z,6.69
2023-04-16T00:37:52.370Z,6.67
2023-04-16T00:40:25.270Z,6.70
2023-04-16T00:42:55.661Z,6.69
2023-04-16T00:45:26.747Z,6.69
2023-04-16T00:47:59.244Z,6.68
2023-04-16T00:50:30.768Z,6.68
2023-04-16T00:53:01.167Z,6.64
2023-04-16T00:55:34.073Z,6.67
2023-04-16T00:58:04.332Z,6.65
2023-04-16T01:00:34.810Z,6.68
2023-04-16T01:03:05.330Z,6.67
2023-04-16T01:05:35.765Z,6.66
2023-04-16T01:08:06.308Z,6.68
2023-04-16T01:10:39.225Z,6.69
2023-04-16T01:13:09.458Z,6.70
2023-04-16T01:15:39.807Z,6.69
2023-04-16T01:18:16.329Z,6.65
2023-04-16T01:20:49.601Z,6.68
2023-04-16T01:23:21.608Z,6.74
2023-04-16T01:25:51.850Z,6.68
2023-04-16T01:28:22.424Z,6.65
2023-04-16T01:30:52.691Z,6.65
2023-04-16T01:33:36.502Z,6.65
2023-04-16T01:36:09.806Z,6.68
2023-04-16T01:38:40.059Z,6.66
2023-04-16T01:41:10.297Z,6.65
2023-04-16T01:43:41.427Z,6.66
2023-04-16T01:46:15.093Z,6.66
2023-04-16T01:48:45.784Z,6.63
2023-04-16T01:51:18.610Z,6.66
2023-04-16T01:53:48.895Z,6.66
2023-04-16T01:56:19.196Z,6.65
2023-04-16T01:58:49.946Z,6.66
2023-04-16T02:01:22.008Z,6.67
2023-04-16T02:03:52.830Z,6.67
2023-04-16T02:06:27.534Z,6.65
2023-04-16T02:08:57.866Z,6.66
2023-04-16T02:11:29.245Z,6.63
2023-04-16T02:13:59.774Z,6.65
2023-04-16T02:16:30.318Z,6.63
2023-04-16T02:19:08.118Z,6.67
2023-04-16T02:21:42.975Z,6.69
2023-04-16T02:24:13.312Z,6.70
2023-04-16T02:26:45.236Z,6.76
2023-04-16T02:29:19.912Z,6.75
2023-04-16T02:31:56.472Z,6.75
2023-04-16T02:34:27.212Z,6.71
2023-04-16T02:37:01.203Z,6.67
2023-04-16T02:39:31.670Z,6.68
2023-04-16T02:42:02.887Z,6.69
2023-04-16T02:44:33.358Z,6.67
2023-04-16T02:47:03.636Z,6.66
2023-04-16T02:49:34.011Z,6.66
2023-04-16T02:52:07.113Z,6.71
2023-04-16T02:54:37.343Z,6.72
2023-04-16T02:57:15.288Z,6.70
2023-04-16T02:59:45.655Z,6.69
2023-04-16T03:02:16.433Z,6.67
2023-04-16T03:04:46.849Z,6.67
2023-04-16T03:07:19.772Z,6.71
2023-04-16T03:09:50.037Z,6.66
2023-04-16T03:12:20.351Z,6.68
2023-04-16T03:14:50.590Z,6.66
2023-04-16T03:17:21.061Z,6.62
2023-04-16T03:19:51.421Z,6.66
2023-04-16T03:22:25.679Z,6.63
2023-04-16T03:24:56.089Z,6.66
2023-04-16T03:27:26.329Z,6.70
2023-04-16T03:29:56.672Z,6.76
2023-04-16T03:32:27.181Z,6.74
2023-04-16T03:34:57.608Z,6.75
2023-04-16T03:37:30.894Z,6.63
2023-04-16T03:40:01.717Z,6.67
2023-04-16T03:42:32.315Z,6.63
2023-04-16T03:45:02.622Z,6.67
2023-04-16T03:47:33.256Z,6.63
2023-04-16T03:50:06.398Z,6.61
2023-04-16T03:52:39.361Z,6.63
2023-04-16T03:55:10.481Z,6.60
2023-04-16T03:57:40.739Z,6.59
2023-04-16T04:00:15.208Z,6.63
2023-04-16T04:02:55.096Z,6.66
2023-04-16T04:05:26.316Z,6.61
2023-04-16T04:07:59.143Z,6.66
2023-04-16T04:10:29.370Z,6.59
2023-04-16T04:12:59.591Z,6.63
2023-04-16T04:15:29.885Z,6.58
2023-04-16T04:18:00.541Z,6.55
2023-04-16T04:20:30.897Z,6.58
2023-04-16T04:23:04.386Z,6.55
2023-04-16T04:25:34.671Z,6.57
2023-04-16T04:28:04.912Z,6.54
2023-04-16T04:30:35.929Z,6.54
2023-04-16T04:33:07.286Z,6.56
2023-04-16T04:35:37.954Z,6.54
2023-04-16T04:38:10.945Z,6.54
2023-04-16T04:40:41.220Z,6.52
2023-04-16T04:43:12.104Z,6.53
2023-04-16T04:45:42.731Z,6.53
2023-04-16T04:48:13.021Z,6.55
2023-04-16T04:50:43.546Z,6.55
2023-04-16T04:53:16.418Z,6.55
2023-04-16T04:55:47.257Z,6.58
2023-04-16T04:58:18.298Z,6.60
2023-04-16T05:00:49.240Z,6.56
2023-04-16T05:03:22.562Z,6.63
2023-04-16T05:05:53.034Z,6.57
2023-04-16T05:08:25.922Z,6.61
2023-04-16T05:10:56.159Z,6.59
2023-04-16T05:13:26.540Z,6.58
2023-04-16T05:15:56.757Z,6.59
2023-04-16T05:18:27.052Z,6.56
2023-04-16T05:20:57.306Z,6.57
2023-04-16T05:23:30.198Z,6.59
2023-04-16T05:26:00.484Z,6.57
2023-04-16T05:28:30.870Z,6.62
2023-04-16T05:31:01.126Z,6.61
2023-04-16T05:33:31.374Z,6.56
2023-04-16T05:36:01.615Z,6.57
2023-04-16T05:38:34.412Z,6.55
2023-04-16T05:41:04.657Z,6.61
2023-04-16T05:43:34.870Z,6.60
2023-04-16T05:46:05.389Z,6.61
2023-04-16T05:48:35.793Z,6.61
2023-04-16T05:51:06.303Z,6.57
2023-04-16T05:53:39.274Z,6.60
2023-04-16T05:56:10.169Z,6.65
2023-04-16T05:58:40.457Z,6.65
2023-04-16T06:01:10.694Z,6.65
2023-04-16T06:03:41.016Z,6.65
2023-04-16T06:06:11.778Z,6.71
2023-04-16T06:08:48.060Z,6.65
2023-04-16T06:11:18.692Z,6.68
2023-04-16T06:13:48.978Z,6.72
2023-04-16T06:16:19.680Z,6.70
2023-04-16T06:18:50.183Z,6.74
2023-04-16T06:21:20.506Z,6.79
2023-04-16T06:23:53.406Z,6.80
2023-04-16T06:26:23.670Z,6.81
2023-04-16T06:28:53.901Z,6.77
2023-04-16T06:31:24.291Z,6.71
2023-04-16T06:33:54.557Z,6.71
2023-04-16T06:36:24.925Z,6.74
2023-04-16T06:38:57.829Z,6.78
2023-04-16T06:41:28.872Z,6.75
2023-04-16T06:44:00.379Z,6.76
2023-04-16T06:46:30.676Z,6.76
2023-04-16T06:49:00.959Z,6.76
2023-04-16T06:51:31.201Z,6.82
2023-04-16T06:54:03.993Z,6.82
2023-04-16T06:56:35.891Z,6.78
2023-04-16T06:59:06.389Z,6.90
2023-04-16T07:01:36.700Z,6.87
2023-04-16T07:04:08.914Z,6.96
2023-04-16T07:06:39.278Z,6.97
2023-04-16T07:09:12.433Z,6.99
2023-04-16T07:11:43.028Z,6.92
2023-04-16T07:14:13.539Z,6.96
2023-04-16T07:16:43.841Z,6.91
2023-04-16T07:19:14.278Z,6.96
2023-04-16T07:21:44.865Z,6.95
2023-04-16T07:24:17.774Z,7.00
2023-04-16T07:26:48.028Z,7.03
2023-04-16T07:29:18.300Z,6.97
2023-04-16T07:31:48.742Z,7.02
2023-04-16T07:34:19.135Z,7.03
2023-04-16T07:36:49.446Z,6.98
2023-04-16T07:39:22.368Z,7.00
2023-04-16T07:41:52.659Z,7.08
2023-04-16T07:44:23.211Z,7.07
2023-04-16T07:46:53.640Z,7.04
2023-04-16T07:49:23.986Z,6.98
2023-04-16T07:51:54.255Z,6.99
2023-04-16T07:54:28.964Z,6.98
2023-04-16T07:56:59.478Z,7.08
2023-04-16T07:59:30.079Z,7.19
2023-04-16T08:02:00.606Z,7.08
2023-04-16T08:04:31.060Z,7.08
2023-04-16T08:07:01.517Z,7.05
2023-04-16T08:09:35.042Z,7.14
2023-04-16T08:12:05.557Z,7.18
2023-04-16T08:14:35.814Z,7.12
2023-04-16T08:17:06.327Z,7.20
2023-04-16T08:19:36.944Z,7.23
2023-04-16T08:22:07.228Z,7.20
2023-04-16T08:24:40.072Z,7.24
2023-04-16T08:27:18.637Z,7.18
2023-04-16T08:29:49.879Z,7.22
2023-04-16T08:32:20.291Z,7.18
2023-04-16T08:34:50.676Z,7.26
2023-04-16T08:37:21.041Z,7.24
2023-04-16T08:39:53.856Z,7.27
2023-04-16T08:42:26.665Z,7.27
2023-04-16T08:45:02.944Z,7.39
2023-04-16T08:47:37.242Z,7.33
2023-04-16T08:50:08.065Z,7.32
2023-04-16T08:52:40.794Z,7.26
2023-04-16T08:55:15.301Z,7.26
2023-04-16T08:57:50.046Z,7.44
2023-04-16T09:00:20.984Z,7.52
2023-04-16T09:02:52.402Z,7.44
2023-04-16T09:05:25.911Z,7.53
2023-04-16T09:07:56.548Z,7.57
2023-04-16T09:10:29.901Z,7.60
2023-04-16T09:13:00.281Z,7.78
2023-04-16T09:15:30.534Z,7.80
2023-04-16T09:18:00.794Z,7.73
2023-04-16T09:20:31.072Z,7.69
2023-04-16T09:23:01.475Z,7.77
2023-04-16T09:25:35.955Z,7.79
2023-04-16T09:28:06.406Z,7.93
2023-04-16T09:30:37.337Z,7.90
2023-04-16T09:33:17.587Z,7.95
2023-04-16T09:35:48.608Z,7.79
2023-04-16T09:38:19.415Z,7.67
2023-04-16T09:41:08.458Z,7.66
2023-04-16T09:43:39.656Z,7.71
2023-04-16T09:46:10.002Z,7.76
2023-04-16T09:48:40.545Z,7.73
2023-04-16T09:51:10.916Z,7.81
2023-04-16T09:53:41.345Z,7.81
2023-04-16T09:56:14.956Z,7.84
2023-04-16T09:58:46.185Z,7.95
2023-04-16T10:01:17.414Z,7.97
2023-04-16T10:03:52.515Z,8.09
2023-04-16T10:06:23.721Z,8.05
2023-04-16T10:08:57.284Z,8.17
2023-04-16T10:11:30.298Z,8.28
2023-04-16T10:14:00.829Z,8.21
2023-04-16T10:16:32.201Z,8.11
2023-04-16T10:19:02.640Z,8.10
2023-04-16T10:21:34.446Z,8.00
2023-04-16T10:24:05.715Z,7.86
2023-04-16T10:26:38.950Z,7.99
2023-04-16T10:29:10.391Z,8.06
2023-04-16T10:31:41.806Z,8.12
2023-04-16T10:34:12.343Z,8.14
2023-04-16T10:36:42.831Z,8.40
2023-04-16T10:39:17.002Z,8.42
2023-04-16T10:41:50.317Z,8.58
2023-04-16T10:44:21.775Z,8.46
2023-04-16T10:46:54.814Z,8.38
2023-04-16T10:49:26.553Z,8.39
2023-04-16T10:51:58.194Z,8.22
2023-04-16T10:54:29.745Z,8.20
2023-04-16T10:57:06.185Z,8.14
2023-04-16T10:59:38.047Z,8.22
2023-04-16T11:02:10.613Z,8.35
2023-04-16T11:04:41.635Z,8.37
2023-04-16T11:07:17.819Z,8.15
2023-04-16T11:09:49.949Z,8.17
2023-04-16T11:12:23.293Z,8.19
2023-04-16T11:14:54.201Z,8.19
2023-04-16T11:17:24.558Z,8.02
2023-04-16T11:19:54.891Z,7.98
2023-04-16T11:22:25.305Z,8.04
2023-04-16T11:24:59.590Z,8.16
2023-04-16T11:27:33.219Z,8.42
2023-04-16T11:30:04.521Z,8.34
2023-04-16T11:32:35.818Z,8.46
2023-04-16T11:35:07.395Z,8.55
2023-04-16T11:37:38.811Z,8.67
2023-04-16T11:40:10.478Z,8.65
2023-04-16T11:42:44.518Z,8.59
2023-04-16T11:45:15.103Z,8.65
2023-04-16T11:47:46.333Z,8.59
2023-04-16T11:50:20.574Z,8.27
2023-04-16T11:52:51.522Z,8.19
2023-04-16T11:55:21.987Z,8.34
2023-04-16T11:57:54.839Z,8.43
2023-04-16T12:00:25.134Z,8.47
2023-04-16T12:02:56.227Z,8.40
2023-04-16T12:05:31.397Z,8.36
2023-04-16T12:08:02.274Z,8.23
2023-04-16T12:10:35.110Z,8.23
2023-04-16T12:13:18.095Z,8.33
2023-04-16T12:15:49.109Z,8.50
2023-04-16T12:18:20.435Z,8.44
2023-04-16T12:20:51.220Z,8.64
2023-04-16T12:23:28.410Z,8.50
2023-04-16T12:25:59.832Z,8.46
2023-04-16T12:28:34.413Z,8.35
2023-04-16T12:31:05.060Z,8.29
2023-04-16T12:33:35.665Z,8.20
2023-04-16T12:36:19.372Z,8.27
2023-04-16T12:38:49.899Z,8.17
2023-04-16T12:41:20.231Z,8.20
2023-04-16T12:43:53.124Z,8.37
2023-04-16T12:46:23.417Z,8.32
2023-04-16T12:48:53.659Z,8.47
2023-04-16T12:51:23.979Z,8.57
2023-04-16T12:53:54.223Z,8.57
2023-04-16T12:56:24.490Z,8.51
2023-04-16T12:58:57.493Z,8.43
2023-04-16T13:01:27.785Z,8.50
2023-04-16T13:03:58.187Z,8.64
2023-04-16T13:06:28.899Z,8.62
2023-04-16T13:08:59.231Z,8.49
2023-04-16T13:11:29.486Z,8.55
2023-04-16T13:14:02.390Z,8.42
2023-04-16T13:16:33.525Z,8.38
2023-04-16T13:19:03.833Z,8.31
2023-04-16T13:21:34.455Z,8.44
2023-04-16T13:24:04.800Z,8.28
2023-04-16T13:26:35.194Z,8.16
2023-04-16T13:29:08.312Z,8.29
2023-04-16T13:31:38.879Z,8.18
2023-04-16T13:34:09.185Z,8.11
2023-04-16T13:36:39.434Z,8.11
2023-04-16T13:39:11.720Z,8.09
2023-04-16T13:41:42.251Z,8.23
2023-04-16T13:44:15.081Z,8.31
2023-04-16T13:46:47.892Z,8.21
2023-04-16T13:49:18.259Z,8.32
2023-04-16T13:51:48.611Z,8.26
2023-04-16T13:54:18.930Z,8.41
2023-04-16T13:56:49.323Z,8.34
2023-04-16T13:59:22.495Z,8.33
2023-04-16T14:01:52.808Z,8.32
2023-04-16T14:04:23.672Z,8.22
2023-04-16T14:06:54.000Z,8.22
2023-04-16T14:09:24.577Z,8.10
2023-04-16T14:11:54.839Z,8.15
2023-04-16T14:14:27.700Z,8.28
2023-04-16T14:16:58.042Z,8.31
2023-04-16T14:19:28.464Z,8.34
2023-04-16T14:21:58.823Z,8.10
2023-04-16T14:24:29.072Z,8.19
2023-04-16T14:26:59.341Z,8.27
2023-04-16T14:29:33.199Z,8.33
2023-04-16T14:32:03.493Z,8.19
2023-04-16T14:34:33.843Z,8.27
2023-04-16T14:37:04.415Z,8.23
2023-04-16T14:39:34.679Z,8.28
2023-04-16T14:42:05.022Z,8.21
2023-04-16T14:44:37.894Z,8.16
2023-04-16T14:47:08.725Z,8.11
2023-04-16T14:49:38.950Z,8.10
2023-04-16T14:52:09.293Z,8.16
2023-04-16T14:54:39.601Z,8.21
2023-04-16T14:57:09.905Z,8.23
2023-04-16T14:59:42.876Z,8.35
2023-04-16T15:02:13.313Z,8.22
2023-04-16T15:04:43.611Z,8.21
2023-04-16T15:07:13.908Z,8.22
2023-04-16T15:09:44.289Z,8.26
2023-04-16T15:12:14.582Z,8.16
2023-04-16T15:14:47.398Z,8.13
2023-04-16T15:17:17.659Z,8.05
2023-04-16T15:19:47.939Z,8.10
2023-04-16T15:22:18.339Z,8.02
2023-04-16T15:24:48.638Z,8.01
2023-04-16T15:27:19.858Z,8.03
2023-04-16T15:29:54.120Z,7.99
2023-04-16T15:32:24.404Z,7.97
2023-04-16T15:34:55.539Z,8.04
2023-04-16T15:37:26.416Z,8.08
2023-04-16T15:39:56.803Z,8.05
2023-04-16T15:42:27.251Z,7.99
2023-04-16T15:45:00.118Z,8.08
2023-04-16T15:47:30.535Z,8.09
2023-04-16T15:50:00.846Z,8.04
2023-04-16T15:52:31.499Z,8.04
2023-04-16T15:55:04.352Z,8.01
2023-04-16T15:57:34.867Z,8.01
2023-04-16T16:00:13.661Z,8.02
2023-04-16T16:02:44.674Z,7.96
2023-04-16T16:05:15.684Z,7.87
2023-04-16T16:07:46.452Z,7.88
2023-04-16T16:10:17.140Z,7.86
2023-04-16T16:12:48.297Z,7.86
2023-04-16T16:15:21.093Z,7.91
2023-04-16T16:17:53.032Z,7.90
2023-04-16T16:20:23.693Z,7.89
2023-04-16T16:22:54.844Z,7.95
2023-04-16T16:25:25.650Z,7.93
2023-04-16T16:27:55.903Z,7.88
2023-04-16T16:30:29.035Z,7.94
2023-04-16T16:32:59.375Z,7.94
2023-04-16T16:35:29.697Z,8.04
2023-04-16T16:38:00.687Z,7.99
2023-04-16T16:40:31.144Z,7.93
2023-04-16T16:43:01.482Z,7.95
2023-04-16T16:45:34.368Z,7.92
2023-04-16T16:48:04.678Z,7.88
2023-04-16T16:50:35.299Z,7.93
2023-04-16T16:53:06.010Z,7.99
2023-04-16T16:55:36.573Z,7.97
2023-04-16T16:58:07.008Z,7.97
2023-04-16T17:00:39.985Z,7.94
2023-04-16T17:03:10.645Z,7.94
2023-04-16T17:05:41.106Z,7.93
2023-04-16T17:08:12.216Z,7.94
2023-04-16T17:10:43.717Z,7.93
2023-04-16T17:13:15.307Z,7.90
2023-04-16T17:15:48.168Z,7.95
2023-04-16T17:18:21.394Z,8.00
2023-04-16T17:20:51.696Z,7.99
2023-04-16T17:23:21.958Z,8.06
2023-04-16T17:25:52.421Z,8.11
2023-04-16T17:28:23.354Z,8.06
2023-04-16T17:30:57.712Z,8.04
2023-04-16T17:33:28.071Z,8.03
2023-04-16T17:35:58.376Z,8.02
2023-04-16T17:38:28.627Z,8.00
2023-04-16T17:40:59.081Z,8.02
2023-04-16T17:43:29.429Z,8.04
2023-04-16T17:46:02.459Z,8.00
2023-04-16T17:48:32.858Z,7.97
2023-04-16T17:51:03.176Z,7.98
2023-04-16T17:53:33.632Z,7.96
2023-04-16T17:56:03.839Z,7.98
2023-04-16T17:58:35.473Z,7.95
2023-04-16T18:01:08.419Z,7.93
2023-04-16T18:03:38.854Z,7.94
2023-04-16T18:06:09.289Z,7.97
2023-04-16T18:08:39.526Z,7.94
2023-04-16T18:11:10.729Z,7.93
2023-04-16T18:13:40.955Z,7.94
2023-04-16T18:16:19.341Z,7.92
2023-04-16T18:18:49.525Z,7.89
2023-04-16T18:21:19.737Z,7.93
2023-04-16T18:23:49.980Z,7.91
2023-04-16T18:26:22.522Z,7.93
2023-04-16T18:28:53.155Z,7.96
2023-04-16T18:31:26.793Z,7.95
2023-04-16T18:33:58.254Z,7.91
2023-04-16T18:36:29.031Z,7.93
2023-04-16T18:39:02.536Z,7.93
2023-04-16T18:41:33.330Z,7.96
2023-04-16T18:44:03.896Z,7.92
2023-04-16T18:46:36.701Z,7.89
2023-04-16T18:49:07.811Z,7.92
2023-04-16T18:51:38.023Z,7.93
2023-04-16T18:54:08.274Z,7.86
2023-04-16T18:56:38.576Z,7.86
2023-04-16T18:59:08.909Z,7.81
2023-04-16T19:01:41.821Z,7.89
2023-04-16T19:04:12.059Z,7.91
2023-04-16T19:06:42.333Z,7.92
2023-04-16T19:09:12.825Z,7.87
2023-04-16T19:11:43.393Z,7.94
2023-04-16T19:14:13.583Z,7.93
2023-04-16T19:16:46.515Z,7.98
2023-04-16T19:19:16.770Z,7.94
2023-04-16T19:21:46.993Z,7.95
2023-04-16T19:24:17.205Z,7.88
2023-04-16T19:26:47.412Z,7.90
2023-04-16T19:29:18.220Z,7.87
2023-04-16T19:31:51.610Z,7.91
2023-04-16T19:34:22.865Z,7.89
2023-04-16T19:36:53.772Z,7.92
2023-04-16T19:39:23.983Z,7.84
2023-04-16T19:41:54.731Z,7.80
2023-04-16T19:44:25.450Z,7.79
2023-04-16T19:46:58.208Z,7.85
2023-04-16T19:49:35.569Z,7.86
2023-04-16T19:52:06.022Z,7.78
2023-04-16T19:54:37.425Z,7.78
2023-04-16T19:57:07.649Z,7.74
2023-04-16T19:59:38.437Z,7.86
2023-04-16T20:02:11.545Z,7.84
2023-04-16T20:04:41.889Z,7.84
2023-04-16T20:07:12.090Z,7.83
2023-04-16T20:09:42.477Z,7.83
2023-04-16T20:12:12.735Z,7.85
2023-04-16T20:14:44.002Z,7.86
2023-04-16T20:17:20.078Z,7.81
2023-04-16T20:19:51.395Z,7.78
2023-04-16T20:22:21.645Z,7.75
2023-04-16T20:24:55.181Z,7.78
2023-04-16T20:27:25.427Z,7.76
2023-04-16T20:29:56.151Z,7.74
2023-04-16T20:32:29.001Z,7.80
2023-04-16T20:34:59.865Z,7.78
2023-04-16T20:37:31.400Z,7.71
2023-04-16T20:40:01.607Z,7.74
2023-04-16T20:42:32.418Z,7.70
2023-04-16T20:45:02.594Z,7.67
2023-04-16T20:47:35.776Z,7.71
2023-04-16T20:50:06.131Z,7.72
2023-04-16T20:52:36.637Z,7.72
2023-04-16T20:55:08.212Z,7.71
2023-04-16T20:57:38.465Z,7.68
2023-04-16T21:00:12.161Z,7.66
2023-04-16T21:02:45.635Z,7.65
2023-04-16T21:05:16.693Z,7.68
2023-04-16T21:07:46.902Z,7.70
2023-04-16T21:10:20.581Z,7.68
2023-04-16T21:12:51.148Z,7.74
2023-04-16T21:15:21.483Z,7.69
2023-04-16T21:17:54.312Z,7.67
2023-04-16T21:20:24.544Z,7.70
2023-04-16T21:22:56.965Z,7.77
2023-04-16T21:25:27.298Z,7.78
2023-04-16T21:27:57.928Z,7.87
2023-04-16T21:30:28.110Z,7.73
2023-04-16T21:33:00.958Z,7.76
2023-04-16T21:35:31.221Z,7.72
2023-04-16T21:38:01.458Z,7.68
2023-04-16T21:40:31.722Z,7.64
2023-04-16T21:43:01.976Z,7.68
2023-04-16T21:45:33.060Z,7.63
2023-04-16T21:48:05.879Z,7.72
2023-04-16T21:50:36.251Z,7.68
2023-04-16T21:53:07.229Z,7.69
2023-04-16T21:55:37.993Z,7.73
2023-04-16T21:58:08.177Z,7.70
2023-04-16T22:00:38.407Z,7.68
2023-04-16T22:03:12.523Z,7.65
2023-04-16T22:05:43.023Z,7.64
2023-04-16T22:08:24.110Z,7.63
2023-04-16T22:10:55.056Z,7.61
2023-04-16T22:13:26.088Z,7.60
2023-04-16T22:15:57.865Z,7.62
2023-04-16T22:18:33.238Z,7.61
2023-04-16T22:21:04.013Z,7.60
2023-04-16T22:23:34.227Z,7.62
2023-04-16T22:26:05.077Z,7.65
2023-04-16T22:28:35.420Z,7.66
2023-04-16T22:31:05.720Z,7.60
2023-04-16T22:33:38.594Z,7.57
2023-04-16T22:36:09.158Z,7.59
2023-04-16T22:38:39.848Z,7.61
2023-04-16T22:41:10.133Z,7.61
2023-04-16T22:43:40.678Z,7.58
2023-04-16T22:46:10.917Z,7.57
2023-04-16T22:48:43.671Z,7.55
2023-04-16T22:51:14.043Z,7.60
2023-04-16T22:53:44.240Z,7.55
2023-04-16T22:56:14.458Z,7.59
2023-04-16T22:58:44.650Z,7.64
2023-04-16T23:01:14.937Z,7.58
2023-04-16T23:03:47.849Z,7.58
2023-04-16T23:06:18.287Z,7.54
2023-04-16T23:08:48.533Z,7.53
2023-04-16T23:11:18.743Z,7.53
2023-04-16T23:13:48.981Z,7.53
2023-04-16T23:16:19.194Z,7.56
2023-04-16T23:18:52.012Z,7.52
2023-04-16T23:21:23.058Z,7.59
2023-04-16T23:23:53.400Z,7.53
2023-04-16T23:26:23.890Z,7.48
2023-04-16T23:28:54.170Z,7.47
2023-04-16T23:31:24.534Z,7.49
2023-04-16T23:33:57.319Z,7.45
2023-04-16T23:36:27.652Z,7.50
2023-04-16T23:38:57.855Z,7.45
2023-04-16T23:41:28.160Z,7.45
2023-04-16T23:43:58.343Z,7.49
2023-04-16T23:46:28.596Z,7.42
2023-04-16T23:49:01.690Z,7.45
2023-04-16T23:51:32.109Z,7.51
2023-04-16T23:54:02.280Z,7.45
2023-04-16T23:56:32.484Z,7.48
2023-04-16T23:59:03.179Z,7.43
